Time;durP1;ratioP1;P1;durP2;ratioP2;P2;SDS_P1;SDS_P2;PMS_P1;PMS_P2;Temp;Humidity;BMP_temperature;BMP_pressure;BME280_temperature;BME280_humidity;BME280_pressure;Samples;Min_cycle;Max_cycle;Signal;HPM_P1;HPM_P2
2023/09/30 00:08:06;;;;;;;9.80;3.33;;;;;;;13.41;67.84;101446.22;21065982;28;20226;-78
2023/09/30 00:18:10;;;;;;;11.23;3.80;;;;;;;13.49;67.69;101437.81;21078151;28;20251;-77
2023/09/30 00:28:11;;;;;;;9.80;2.83;;;;;;;13.92;65.72;101440.03;21048263;28;20218;-78
2023/09/30 00:38:15;;;;;;;11.98;3.35;;;;;;;13.85;66.51;101440.53;21062710;28;20206;-78
2023/09/30 00:48:17;;;;;;;7.93;3.30;;;;;;;13.37;68.09;101431.91;21069465;28;20330;-82
2023/09/30 00:58:20;;;;;;;11.50;4.00;;;;;;;13.52;67.46;101437.16;21075296;28;20234;-78
2023/09/30 01:08:22;;;;;;;11.20;3.00;;;;;;;13.53;68.40;101421.84;21080422;28;20222;-78
2023/09/30 01:18:25;;;;;;;12.02;3.30;;;;;;;13.23;68.62;101463.03;21069901;28;20186;-79
2023/09/30 01:28:28;;;;;;;11.30;4.50;;;;;;;13.35;68.17;101442.66;21055587;28;20354;-78
2023/09/30 01:38:30;;;;;;;15.07;4.63;;;;;;;13.56;67.58;101424.03;21070500;28;20206;-78
2023/09/30 01:48:33;;;;;;;18.85;6.43;;;;;;;13.64;66.20;101430.94;21057981;28;20519;-78
2023/09/30 01:58:35;;;;;;;13.85;5.53;;;;;;;13.37;67.16;101463.00;21080358;28;20226;-82
2023/09/30 02:08:38;;;;;;;14.50;4.93;;;;;;;13.13;67.71;101448.28;21090097;28;20221;-82
2023/09/30 02:18:40;;;;;;;17.00;5.10;;;;;;;12.91;68.28;101486.66;21077631;28;20227;-78
2023/09/30 02:28:43;;;;;;;14.77;5.07;;;;;;;13.31;66.19;101469.88;21087339;28;20598;-78
2023/09/30 02:38:46;;;;;;;11.67;3.63;;;;;;;13.25;66.11;101460.69;21045837;28;20195;-79
2023/09/30 02:48:49;;;;;;;12.57;3.45;;;;;;;13.45;65.21;101447.25;21074326;28;20215;-81
2023/09/30 02:58:52;;;;;;;13.52;4.15;;;;;;;13.43;64.99;101453.22;21083113;28;20226;-78
2023/09/30 03:08:55;;;;;;;10.48;3.17;;;;;;;13.20;66.65;101480.63;21079933;28;20211;-77
2023/09/30 03:18:56;;;;;;;11.23;3.93;;;;;;;12.88;67.43;101475.97;21053806;28;20194;-86
2023/09/30 03:29:00;;;;;;;17.20;3.90;;;;;;;12.79;67.35;101455.28;21072442;28;20308;-85
2023/09/30 03:39:05;;;;;;;11.35;3.58;;;;;;;12.76;67.66;101464.38;21076686;28;20705;-82
2023/09/30 03:49:09;;;;;;;8.52;3.03;;;;;;;12.62;68.57;101457.91;21045305;28;20687;-85
2023/09/30 03:59:10;;;;;;;9.85;2.97;;;;;;;12.71;67.89;101467.34;21069785;28;20274;-86
2023/09/30 04:09:16;;;;;;;10.55;2.90;;;;;;;12.91;66.74;101444.25;21076036;28;20241;-81
2023/09/30 04:19:17;;;;;;;10.10;3.35;;;;;;;13.10;66.06;101458.25;21059090;28;20202;-84
2023/09/30 04:29:23;;;;;;;11.40;3.22;;;;;;;12.34;68.55;101453.44;21067216;28;20522;-84
2023/09/30 04:39:25;;;;;;;9.27;3.27;;;;;;;12.89;66.42;101457.88;21072430;28;20198;-78
2023/09/30 04:49:28;;;;;;;10.07;2.85;;;;;;;12.85;65.94;101476.63;21060903;28;20248;-85
2023/09/30 04:59:29;;;;;;;12.88;2.75;;;;;;;12.87;65.41;101488.41;21059524;28;20202;-81
2023/09/30 05:09:33;;;;;;;7.65;2.65;;;;;;;12.56;66.86;101496.75;21044735;28;20226;-81
2023/09/30 05:19:36;;;;;;;8.93;2.27;;;;;;;12.27;67.99;101499.00;21053850;28;20198;-79
2023/09/30 05:29:41;;;;;;;11.60;2.35;;;;;;;12.26;67.75;101520.72;21069936;28;20267;-82
2023/09/30 05:39:44;;;;;;;14.17;4.00;;;;;;;12.66;66.98;101514.59;21062225;28;20234;-82
2023/09/30 05:49:48;;;;;;;14.60;3.10;;;;;;;11.79;70.13;101518.22;21076298;28;20260;-81
2023/09/30 05:59:50;;;;;;;11.80;2.73;;;;;;;12.16;68.89;101518.09;21071826;28;20246;-84
2023/09/30 06:09:53;;;;;;;11.07;2.90;;;;;;;12.32;68.50;101517.81;21073215;28;20214;-87
2023/09/30 06:20:08;;;;;;;11.97;3.00;;;;;;;12.05;69.46;101521.44;21091544;28;20202;-77
2023/09/30 06:30:13;;;;;;;9.30;2.90;;;;;;;12.20;68.65;101516.34;21077227;28;20655;-83
2023/09/30 06:40:14;;;;;;;10.07;3.20;;;;;;;12.54;67.35;101523.59;21075358;28;20521;-85
2023/09/30 06:50:17;;;;;;;10.83;3.43;;;;;;;12.25;68.63;101538.81;21083016;28;20233;-84
2023/09/30 07:00:19;;;;;;;11.13;4.15;;;;;;;12.97;66.36;101549.53;21070400;28;21212;-85
2023/09/30 07:10:22;;;;;;;11.25;3.83;;;;;;;12.89;67.04;101555.91;21073524;28;20223;-82
2023/09/30 07:20:24;;;;;;;12.63;4.03;;;;;;;12.51;69.08;101569.41;21063561;28;20647;-79
2023/09/30 07:30:27;;;;;;;10.10;3.90;;;;;;;12.48;69.75;101596.22;21069023;28;20317;-78
2023/09/30 07:40:29;;;;;;;9.23;4.47;;;;;;;13.53;66.02;101610.47;21065188;28;20213;-78
2023/09/30 07:50:33;;;;;;;10.25;4.50;;;;;;;13.84;65.55;101613.44;21052068;28;20317;-79
2023/09/30 08:00:37;;;;;;;13.63;3.63;;;;;;;14.10;63.57;101610.81;21067861;28;20223;-79
2023/09/30 08:10:41;;;;;;;12.07;3.95;;;;;;;13.71;66.74;101625.63;21030811;28;20222;-79
2023/09/30 08:20:42;;;;;;;9.97;3.60;;;;;;;14.88;62.45;101614.97;21062269;28;20213;-79
2023/09/30 08:30:46;;;;;;;7.60;3.45;;;;;;;14.91;61.41;101620.81;21052936;28;20238;-79
2023/09/30 08:40:50;;;;;;;10.23;3.35;;;;;;;14.71;62.97;101627.03;21043166;28;20207;-78
2023/09/30 08:50:54;;;;;;;9.23;2.88;;;;;;;15.19;60.86;101631.94;21043682;28;20231;-79
2023/09/30 09:00:56;;;;;;;6.57;2.50;;;;;;;15.32;58.57;101631.00;21047984;28;20198;-78
2023/09/30 09:11:03;;;;;;;9.73;3.03;;;;;;;15.44;57.42;101628.34;21042981;28;20219;-80
2023/09/30 09:21:27;;;;;;;7.57;2.65;;;;;;;15.42;58.00;101602.31;21051554;28;20889;-79
2023/09/30 09:31:34;;;;;;;10.60;2.75;;;;;;;15.33;57.42;101604.31;21057950;28;20233;-78
2023/09/30 09:41:50;;;;;;;6.25;1.98;;;;;;;15.78;54.47;101611.38;21049555;28;20190;-79
2023/09/30 09:51:54;;;;;;;8.55;2.65;;;;;;;15.83;52.95;101595.34;21055808;28;20230;-79
2023/09/30 10:01:57;;;;;;;8.02;1.90;;;;;;;17.01;49.05;101590.91;21057943;28;20190;-79
2023/09/30 10:12:01;;;;;;;6.05;1.83;;;;;;;16.00;50.86;101595.34;21064415;28;20248;-79
2023/09/30 10:22:25;;;;;;;8.63;2.45;;;;;;;17.32;46.65;101630.41;21074354;28;20198;-78
2023/09/30 10:33:00;;;;;;;6.32;2.10;;;;;;;16.58;52.15;101606.13;21061185;28;20689;-79
2023/09/30 10:43:03;;;;;;;6.10;1.92;;;;;;;17.30;48.80;101627.06;21067307;28;20221;-78
2023/09/30 10:53:07;;;;;;;8.68;1.90;;;;;;;16.97;46.50;101627.72;21051226;28;20226;-82
2023/09/30 11:03:13;;;;;;;5.47;1.60;;;;;;;16.49;46.57;101637.38;21056675;28;20787;-79
2023/09/30 11:13:15;;;;;;;8.45;2.30;;;;;;;16.56;48.21;101611.31;21052779;28;20701;-79
2023/09/30 11:23:18;;;;;;;3.65;1.63;;;;;;;17.23;44.74;101607.69;21054206;28;20198;-78
2023/09/30 11:33:24;;;;;;;7.25;2.30;;;;;;;17.78;43.72;101590.41;21049982;28;20225;-79
2023/09/30 11:44:00;;;;;;;4.07;2.03;;;;;;;17.67;47.19;101586.28;21043321;28;20245;-80
2023/09/30 11:54:06;;;;;;;5.72;1.95;;;;;;;16.70;44.31;101577.81;21040255;28;20670;-78
2023/09/30 12:04:17;;;;;;;3.78;1.10;;;;;;;16.88;40.54;101591.97;21080317;28;20511;-79
2023/09/30 12:14:24;;;;;;;2.92;1.50;;;;;;;17.53;41.67;101583.75;21075050;28;20217;-79
2023/09/30 12:24:29;;;;;;;2.30;1.50;;;;;;;17.73;40.30;101567.81;21043659;28;20220;-81
2023/09/30 12:34:36;;;;;;;4.30;1.63;;;;;;;17.09;40.78;101553.03;21061379;28;20226;-84
2023/09/30 12:44:42;;;;;;;4.10;1.30;;;;;;;17.72;42.32;101539.69;21070169;28;20198;-78
2023/09/30 12:54:51;;;;;;;4.78;1.60;;;;;;;17.97;39.25;101532.94;21062183;28;20230;-79
2023/09/30 13:04:58;;;;;;;4.75;1.50;;;;;;;16.96;41.19;101552.09;21064708;28;20840;-84
2023/09/30 13:15:05;;;;;;;3.33;1.42;;;;;;;17.37;40.72;101530.63;21042965;28;20546;-83
2023/09/30 13:25:13;;;;;;;5.32;2.10;;;;;;;18.22;39.54;101523.28;21056879;28;20222;-86
2023/09/30 13:35:41;;;;;;;5.30;1.48;;;;;;;17.70;40.11;101494.50;21062960;28;20279;-81
2023/09/30 13:45:49;;;;;;;3.17;1.60;;;;;;;18.34;38.79;101485.44;21037590;28;20742;-77
2023/09/30 13:56:01;;;;;;;3.13;1.45;;;;;;;17.43;42.44;101469.47;21045675;28;20226;-82
2023/09/30 14:06:10;;;;;;;3.75;1.63;;;;;;;18.10;40.87;101474.00;21049494;28;20218;-90
2023/09/30 14:16:12;;;;;;;6.03;1.27;;;;;;;17.65;42.02;101468.28;21091408;28;20318;-76
2023/09/30 14:26:16;;;;;;;5.00;1.85;;;;;;;17.92;41.05;101459.94;21078286;28;20317;-80
2023/09/30 14:36:18;;;;;;;5.50;1.60;;;;;;;17.90;41.71;101459.47;21090310;28;20594;-79
2023/09/30 14:46:21;;;;;;;3.35;1.63;;;;;;;17.30;42.27;101447.81;21068207;28;20410;-88
2023/09/30 14:56:23;;;;;;;5.55;2.15;;;;;;;17.51;42.67;101440.09;21073608;28;20229;-78
2023/09/30 15:06:28;;;;;;;4.80;1.80;;;;;;;17.39;43.14;101438.06;21068371;28;20202;-79
2023/09/30 15:16:30;;;;;;;3.10;1.88;;;;;;;17.11;43.94;101442.59;21058517;28;20210;-82
2023/09/30 15:26:33;;;;;;;5.30;2.13;;;;;;;17.45;45.06;101430.94;21086216;28;20491;-85
2023/09/30 15:36:34;;;;;;;6.40;2.70;;;;;;;17.42;44.12;101423.09;21062196;28;20500;-88
2023/09/30 15:46:37;;;;;;;4.97;2.90;;;;;;;16.89;44.83;101438.06;21072554;28;20206;-88
2023/09/30 15:56:40;;;;;;;6.10;2.70;;;;;;;16.97;46.43;101437.19;21064736;28;20233;-87
2023/09/30 16:06:43;;;;;;;6.20;2.80;;;;;;;16.84;46.70;101444.81;21072049;28;20203;-87
2023/09/30 16:16:45;;;;;;;5.47;2.97;;;;;;;16.65;47.31;101437.91;21068167;28;20321;-87
2023/09/30 16:26:48;;;;;;;4.32;2.85;;;;;;;16.66;48.97;101426.19;21050557;28;20630;-86
2023/09/30 16:36:50;;;;;;;5.55;2.80;;;;;;;16.46;49.17;101424.94;21069279;28;20305;-90
2023/09/30 16:46:53;;;;;;;10.63;3.42;;;;;;;16.51;51.61;101429.63;21068659;28;20199;-84
2023/09/30 16:56:57;;;;;;;4.50;3.28;;;;;;;16.30;51.17;101440.91;21056821;28;20230;-85
2023/09/30 17:07:00;;;;;;;5.43;3.00;;;;;;;16.06;51.43;101449.19;21050912;28;20198;-89
2023/09/30 17:17:02;;;;;;;4.03;2.83;;;;;;;15.83;52.49;101459.94;21044050;28;20228;-89
2023/09/30 17:27:07;;;;;;;6.97;3.10;;;;;;;15.67;52.79;101470.97;21050002;28;20206;-85
2023/09/30 17:37:09;;;;;;;4.35;2.60;;;;;;;15.68;53.02;101469.78;21047915;28;20224;-88
2023/09/30 17:47:12;;;;;;;7.88;3.00;;;;;;;15.54;53.61;101460.63;21046519;28;20195;-84
2023/09/30 17:57:14;;;;;;;4.43;3.30;;;;;;;15.15;55.32;101467.31;21061272;28;20234;-86
2023/09/30 18:07:17;;;;;;;6.43;3.50;;;;;;;14.56;57.03;101461.16;21045898;28;20234;-90
2023/09/30 18:17:19;;;;;;;8.98;3.92;;;;;;;14.99;55.10;101464.13;21068705;28;20515;-89
2023/09/30 18:27:22;;;;;;;7.10;3.80;;;;;;;14.47;57.03;101445.31;21050967;28;20207;-88
2023/09/30 18:37:23;;;;;;;6.40;3.65;;;;;;;14.79;56.08;101459.06;21079341;28;20301;-89
2023/09/30 18:47:26;;;;;;;4.82;3.90;;;;;;;14.43;56.86;101456.44;21086201;28;20658;-88
2023/09/30 18:57:29;;;;;;;4.60;3.53;;;;;;;14.35;56.88;101460.09;21083979;28;20245;-89
2023/09/30 19:07:32;;;;;;;8.23;4.00;;;;;;;14.20;57.20;101467.03;21072358;28;20285;-89
2023/09/30 19:17:34;;;;;;;5.22;2.80;;;;;;;14.41;55.88;101464.47;21077324;28;20232;-81
2023/09/30 19:27:37;;;;;;;6.78;3.33;;;;;;;14.29;56.44;101459.41;21058060;28;20205;-88
2023/09/30 19:37:39;;;;;;;6.13;3.38;;;;;;;14.17;56.21;101453.50;21057698;28;20220;-89
2023/09/30 19:47:43;;;;;;;5.78;3.70;;;;;;;14.29;57.82;101442.41;21052374;28;20209;-89
2023/09/30 19:57:45;;;;;;;7.95;4.20;;;;;;;14.15;56.64;101444.50;21071260;28;20632;-86
2023/09/30 20:07:48;;;;;;;6.63;3.47;;;;;;;14.27;57.45;101424.94;21056900;28;20503;-85
2023/09/30 20:17:50;;;;;;;6.60;3.63;;;;;;;13.83;57.65;101414.53;21071456;28;20554;-90
2023/09/30 20:27:53;;;;;;;3.85;3.28;;;;;;;13.89;57.40;101424.59;21054061;28;20260;-87
2023/09/30 20:37:55;;;;;;;7.23;3.47;;;;;;;14.15;57.61;101427.53;21039370;28;20490;-78
2023/09/30 20:48:00;;;;;;;8.45;3.75;;;;;;;14.37;56.64;101424.63;21042336;28;20243;-90
2023/09/30 20:58:04;;;;;;;7.07;3.92;;;;;;;14.39;54.68;101433.66;21044590;28;20227;-88
2023/09/30 21:08:08;;;;;;;7.00;3.80;;;;;;;14.35;55.29;101426.13;21046859;28;20194;-90
2023/09/30 21:18:10;;;;;;;5.00;3.60;;;;;;;14.01;56.42;101426.78;21068010;28;20243;-90
2023/09/30 21:28:15;;;;;;;4.70;3.30;;;;;;;13.90;57.34;101436.72;21036716;28;20199;-80
2023/09/30 21:38:17;;;;;;;6.80;3.42;;;;;;;13.93;57.18;101425.56;21033642;28;20194;-79
2023/09/30 21:48:20;;;;;;;6.30;3.30;;;;;;;13.71;59.63;101438.94;21042909;28;20206;-78
2023/09/30 21:58:22;;;;;;;6.37;3.60;;;;;;;14.18;57.58;101438.19;21048846;28;20313;-90
2023/09/30 22:08:26;;;;;;;4.70;3.53;;;;;;;14.30;58.52;101424.25;21040162;28;20789;-89
2023/09/30 22:18:28;;;;;;;6.03;3.75;;;;;;;14.12;58.06;101421.69;21078152;28;20205;-89
2023/09/30 22:28:31;;;;;;;6.28;3.80;;;;;;;14.05;58.49;101416.47;21065776;28;20233;-82
2023/09/30 22:38:33;;;;;;;6.97;3.33;;;;;;;14.00;57.79;101410.97;21061291;28;20499;-92
2023/09/30 22:48:36;;;;;;;5.07;3.45;;;;;;;13.31;61.91;101390.75;21078635;28;20487;-90
2023/09/30 22:58:40;;;;;;;6.32;4.05;;;;;;;13.48;60.97;101390.91;21074253;28;20454;-91
2023/09/30 23:08:50;;;;;;;8.90;4.07;;;;;;;13.59;61.25;101391.44;21060112;28;20230;-91
2023/09/30 23:18:52;;;;;;;6.85;3.88;;;;;;;12.73;64.82;101374.66;21069052;28;20194;-92
2023/09/30 23:28:55;;;;;;;4.13;3.13;;;;;;;12.70;65.19;101378.13;21048072;28;20214;-91
2023/09/30 23:38:57;;;;;;;4.15;3.45;;;;;;;12.73;64.88;101374.66;21067557;28;20249;-90
2023/09/30 23:49:02;;;;;;;6.88;3.50;;;;;;;12.86;65.49;101379.41;21066410;28;20233;-91
2023/09/30 23:59:09;;;;;;;6.07;3.47;;;;;;;12.87;64.79;101385.88;21079683;28;20234;-91
